Time;durP1;ratioP1;P1;durP2;ratioP2;P2;SDS_P1;SDS_P2;PMS_P1;PMS_P2;Temp;Humidity;BMP_temperature;BMP_pressure;BME280_temperature;BME280_humidity;BME280_pressure;Samples;Min_cycle;Max_cycle;Signal;HPM_P1;HPM_P2
2023/05/29 00:01:13;;;;;;;11.20;10.50;;;17.50;99.90;;;;;;4906795;29;20999;-83
2023/05/29 00:03:42;;;;;;;12.20;11.27;;;17.50;99.90;;;;;;4898109;29;20488;-83
2023/05/29 00:06:10;;;;;;;12.93;12.03;;;17.40;99.90;;;;;;4921494;29;20489;-83
2023/05/29 00:08:38;;;;;;;11.53;10.80;;;17.40;99.90;;;;;;4904204;29;20861;-83
2023/05/29 00:11:07;;;;;;;11.97;11.10;;;17.30;99.90;;;;;;4907216;29;20496;-83
2023/05/29 00:13:35;;;;;;;11.83;11.13;;;17.30;99.90;;;;;;4905657;29;20528;-83
2023/05/29 00:16:05;;;;;;;13.37;12.37;;;17.30;99.90;;;;;;4907553;29;20457;-82
2023/05/29 00:18:34;;;;;;;12.43;11.73;;;17.30;99.90;;;;;;4919789;29;20988;-83
2023/05/29 00:21:03;;;;;;;12.50;11.80;;;17.30;99.90;;;;;;4920766;29;20597;-83
2023/05/29 00:23:31;;;;;;;12.43;11.80;;;17.20;99.90;;;;;;4905722;29;20467;-83
2023/05/29 00:25:59;;;;;;;12.83;12.03;;;17.20;99.90;;;;;;4906604;29;20484;-83
2023/05/29 00:28:27;;;;;;;12.40;11.70;;;17.20;99.90;;;;;;4921348;29;20487;-83
2023/05/29 00:30:55;;;;;;;13.10;12.30;;;17.10;99.90;;;;;;4907901;29;20897;-83
2023/05/29 00:33:25;;;;;;;13.50;12.50;;;17.00;99.90;;;;;;4909279;29;20457;-83
2023/05/29 00:35:53;;;;;;;13.30;12.40;;;17.00;99.90;;;;;;4910501;29;20454;-83
2023/05/29 00:38:22;;;;;;;13.83;12.73;;;17.00;99.90;;;;;;4910056;29;20540;-82
2023/05/29 00:40:50;;;;;;;13.10;12.20;;;16.90;99.90;;;;;;4908339;29;21234;-83
2023/05/29 00:43:18;;;;;;;14.07;12.90;;;17.00;99.90;;;;;;4909910;29;20462;-83
2023/05/29 00:45:46;;;;;;;12.60;11.63;;;17.00;99.90;;;;;;4911093;29;20493;-83
2023/05/29 00:48:14;;;;;;;14.50;13.13;;;17.00;99.90;;;;;;4909548;29;20556;-82
2023/05/29 00:50:45;;;;;;;12.63;11.70;;;16.80;99.90;;;;;;4910965;29;20564;-83
2023/05/29 00:53:15;;;;;;;12.93;12.00;;;16.80;99.90;;;;;;4909988;29;20458;-83
2023/05/29 00:55:43;;;;;;;12.70;11.90;;;16.80;99.90;;;;;;4910502;29;20517;-83
2023/05/29 00:58:11;;;;;;;12.73;11.60;;;16.70;99.90;;;;;;4910754;29;20476;-82
2023/05/29 01:00:40;;;;;;;13.30;12.27;;;16.70;99.90;;;;;;4906851;29;20469;-83
2023/05/29 01:03:09;;;;;;;12.70;11.60;;;16.60;99.90;;;;;;4910723;29;20524;-83
2023/05/29 01:05:37;;;;;;;13.97;12.87;;;16.60;99.90;;;;;;4910563;29;20556;-83
2023/05/29 01:08:07;;;;;;;13.23;12.13;;;16.60;99.90;;;;;;4910382;29;20453;-82
2023/05/29 01:10:35;;;;;;;13.30;12.23;;;16.60;99.90;;;;;;4910046;29;20445;-83
2023/05/29 01:13:09;;;;;;;12.67;11.63;;;16.50;99.90;;;;;;4910302;29;20520;-83
2023/05/29 01:15:46;;;;;;;13.00;12.20;;;16.50;99.90;;;;;;4910014;29;20457;-83
2023/05/29 01:18:28;;;;;;;12.30;11.40;;;16.50;99.90;;;;;;4907793;29;20908;-83
2023/05/29 01:21:05;;;;;;;12.83;11.70;;;16.50;99.90;;;;;;4908511;29;20472;-82
2023/05/29 01:24:03;;;;;;;12.10;11.40;;;16.40;99.90;;;;;;4909927;29;20793;-83
2023/05/29 01:26:45;;;;;;;12.73;11.80;;;16.40;99.90;;;;;;4909301;29;20489;-82
2023/05/29 01:29:16;;;;;;;12.17;11.47;;;16.30;99.90;;;;;;4911453;29;20467;-83
2023/05/29 01:31:46;;;;;;;13.30;12.60;;;16.30;99.90;;;;;;4910534;29;20511;-83
2023/05/29 01:34:14;;;;;;;12.30;11.50;;;16.30;99.90;;;;;;4907976;29;20491;-83
2023/05/29 01:36:42;;;;;;;12.90;11.93;;;16.30;99.90;;;;;;4910226;29;20830;-82
2023/05/29 01:39:11;;;;;;;12.60;11.90;;;16.20;99.90;;;;;;4908785;29;20782;-83
2023/05/29 01:41:41;;;;;;;12.30;11.37;;;16.30;99.90;;;;;;4908346;29;20564;-83
2023/05/29 01:44:11;;;;;;;13.30;12.30;;;16.40;99.90;;;;;;4908870;29;21119;-83
2023/05/29 01:46:40;;;;;;;13.77;12.77;;;16.40;99.90;;;;;;4909617;29;20508;-83
2023/05/29 01:49:09;;;;;;;12.93;12.10;;;16.40;99.90;;;;;;4909598;29;20464;-83
2023/05/29 01:51:37;;;;;;;12.40;11.73;;;16.30;99.90;;;;;;4906239;29;21015;-83
2023/05/29 01:54:06;;;;;;;13.37;12.37;;;16.20;99.90;;;;;;4909203;29;20460;-83
2023/05/29 01:56:35;;;;;;;13.60;12.50;;;16.20;99.90;;;;;;4909676;29;21265;-83
2023/05/29 01:59:05;;;;;;;12.47;11.80;;;16.20;99.90;;;;;;4907119;29;20502;-83
2023/05/29 02:01:33;;;;;;;12.63;11.90;;;16.20;99.90;;;;;;4909717;29;20567;-84
2023/05/29 02:04:02;;;;;;;12.10;11.40;;;16.20;99.90;;;;;;4909106;29;20470;-83
2023/05/29 02:06:30;;;;;;;12.67;11.87;;;16.10;99.90;;;;;;4907300;29;20951;-82
2023/05/29 02:08:58;;;;;;;13.20;12.20;;;16.10;99.90;;;;;;4908812;29;20873;-83
2023/05/29 02:11:27;;;;;;;12.90;12.00;;;16.10;99.90;;;;;;4908579;29;20481;-83
2023/05/29 02:13:55;;;;;;;13.30;12.53;;;16.00;99.90;;;;;;4909555;29;20520;-83
2023/05/29 02:16:27;;;;;;;12.93;12.10;;;15.90;99.90;;;;;;4901932;29;20473;-83
2023/05/29 02:18:55;;;;;;;12.40;11.60;;;15.90;99.90;;;;;;4907713;29;20473;-82
2023/05/29 02:21:23;;;;;;;13.77;12.80;;;15.80;99.90;;;;;;4909323;29;20491;-83
2023/05/29 02:23:51;;;;;;;12.93;12.03;;;15.80;99.90;;;;;;4908502;29;20474;-82
2023/05/29 02:26:20;;;;;;;12.60;11.90;;;15.70;99.90;;;;;;4905423;29;20464;-83
2023/05/29 02:28:48;;;;;;;13.60;12.53;;;15.70;99.90;;;;;;4906616;29;21016;-83
2023/05/29 02:31:16;;;;;;;12.13;11.43;;;15.60;99.90;;;;;;4908068;29;20487;-83
2023/05/29 02:33:46;;;;;;;13.13;12.10;;;15.60;99.90;;;;;;4906239;29;20450;-83
2023/05/29 02:36:16;;;;;;;13.03;12.23;;;15.50;99.90;;;;;;4907862;29;20472;-82
2023/05/29 02:38:44;;;;;;;13.00;12.20;;;15.50;99.90;;;;;;4907595;29;21126;-83
2023/05/29 02:41:12;;;;;;;13.67;12.77;;;15.60;99.90;;;;;;4907711;29;20484;-83
2023/05/29 02:43:40;;;;;;;12.77;11.90;;;15.70;99.90;;;;;;4908007;29;20468;-83
2023/05/29 02:46:08;;;;;;;13.50;12.60;;;15.70;99.90;;;;;;4909246;29;20463;-82
2023/05/29 02:48:36;;;;;;;13.30;12.47;;;15.70;99.90;;;;;;4900262;29;20547;-83
2023/05/29 02:51:06;;;;;;;13.07;12.17;;;15.60;99.90;;;;;;4908106;29;20489;-83
2023/05/29 02:53:34;;;;;;;13.37;12.57;;;15.60;99.90;;;;;;4907810;29;21023;-83
2023/05/29 02:56:02;;;;;;;12.57;11.80;;;15.60;99.90;;;;;;4908202;29;20497;-83
2023/05/29 02:58:30;;;;;;;12.90;12.20;;;15.60;99.90;;;;;;4906424;29;20498;-82
2023/05/29 03:00:58;;;;;;;12.50;11.80;;;15.50;99.90;;;;;;4908914;29;20485;-83
2023/05/29 03:03:26;;;;;;;14.23;13.10;;;15.50;99.90;;;;;;4907305;29;21003;-83
2023/05/29 03:05:54;;;;;;;11.37;10.73;;;15.50;99.90;;;;;;4908885;29;20469;-82
2023/05/29 03:08:25;;;;;;;16.77;15.13;;;15.50;99.90;;;;;;4908531;29;20485;-83
2023/05/29 03:10:53;;;;;;;20.63;18.00;;;15.40;99.90;;;;;;4906150;29;20484;-83
2023/05/29 03:13:21;;;;;;;18.87;16.77;;;15.40;99.90;;;;;;4908940;29;20507;-83
2023/05/29 03:15:50;;;;;;;14.07;12.87;;;15.40;99.90;;;;;;4909634;29;20558;-82
2023/05/29 03:18:19;;;;;;;13.90;12.70;;;15.30;99.90;;;;;;4908274;29;20464;-83
2023/05/29 03:20:47;;;;;;;13.37;12.43;;;15.20;99.90;;;;;;4907915;29;20539;-82
2023/05/29 03:23:16;;;;;;;12.80;12.00;;;15.20;99.90;;;;;;4909239;29;20463;-83
2023/05/29 03:25:45;;;;;;;13.17;12.37;;;15.20;99.90;;;;;;4908433;29;20461;-83
2023/05/29 03:28:13;;;;;;;13.20;12.30;;;15.30;99.90;;;;;;4907757;29;20497;-83
2023/05/29 03:30:41;;;;;;;14.00;12.57;;;15.20;99.90;;;;;;4908639;29;20485;-83
2023/05/29 03:33:09;;;;;;;13.10;12.20;;;15.20;99.90;;;;;;4908020;29;20468;-83
2023/05/29 03:35:37;;;;;;;13.33;12.53;;;15.30;99.90;;;;;;4908589;29;20472;-82
2023/05/29 03:38:05;;;;;;;12.50;11.70;;;15.40;99.90;;;;;;4907882;29;20508;-82
2023/05/29 03:40:33;;;;;;;13.60;12.80;;;15.30;99.90;;;;;;4922738;29;20457;-83
2023/05/29 03:43:03;;;;;;;12.97;12.10;;;15.20;99.90;;;;;;4907083;29;20456;-83
2023/05/29 03:45:31;;;;;;;12.83;11.93;;;15.10;99.90;;;;;;4908167;29;20478;-83
2023/05/29 03:47:59;;;;;;;12.50;11.70;;;15.10;99.90;;;;;;4908128;29;20488;-82
2023/05/29 03:50:27;;;;;;;11.80;11.10;;;15.00;99.90;;;;;;4906849;29;21482;-82
2023/05/29 03:52:55;;;;;;;12.17;11.47;;;14.90;99.90;;;;;;4909122;29;20969;-83
2023/05/29 03:55:23;;;;;;;13.17;12.43;;;14.80;99.90;;;;;;4907540;29;20582;-82
2023/05/29 03:57:51;;;;;;;12.63;11.90;;;14.90;99.90;;;;;;4907512;29;20578;-83
2023/05/29 04:00:21;;;;;;;12.37;11.40;;;14.90;99.90;;;;;;4905840;29;20452;-82
2023/05/29 04:02:49;;;;;;;12.50;11.80;;;14.90;99.90;;;;;;4907598;29;20458;-83
2023/05/29 04:05:18;;;;;;;12.80;11.90;;;15.00;99.90;;;;;;4910111;29;20471;-83
2023/05/29 04:07:46;;;;;;;12.70;12.00;;;15.00;99.90;;;;;;4909440;29;20489;-83
2023/05/29 04:10:15;;;;;;;12.30;11.60;;;15.00;99.90;;;;;;4910195;29;20962;-83
2023/05/29 04:12:44;;;;;;;12.93;12.13;;;14.90;99.90;;;;;;4910396;29;20587;-83
2023/05/29 04:15:12;;;;;;;13.23;12.33;;;14.90;99.90;;;;;;4910673;29;21018;-83
2023/05/29 04:17:42;;;;;;;13.37;12.53;;;14.90;99.90;;;;;;4908989;29;20451;-83
2023/05/29 04:20:11;;;;;;;15.50;14.33;;;14.90;99.90;;;;;;4915171;29;20459;-82
2023/05/29 04:22:39;;;;;;;15.83;14.73;;;15.00;99.90;;;;;;4910630;29;21365;-83
2023/05/29 04:25:08;;;;;;;14.57;13.60;;;15.10;99.90;;;;;;4910581;29;20475;-83
2023/05/29 04:27:37;;;;;;;14.70;13.60;;;15.20;99.90;;;;;;4911815;29;20452;-83
2023/05/29 04:30:07;;;;;;;14.10;13.30;;;15.30;99.90;;;;;;4911190;29;20467;-83
2023/05/29 04:32:36;;;;;;;15.00;13.80;;;15.30;99.90;;;;;;4910424;29;20566;-83
2023/05/29 04:35:06;;;;;;;14.93;13.70;;;15.30;99.90;;;;;;4912467;29;20471;-82
2023/05/29 04:37:37;;;;;;;14.13;13.20;;;15.20;99.90;;;;;;4908676;29;20482;-82
2023/05/29 04:40:08;;;;;;;14.00;13.10;;;15.10;99.90;;;;;;4910771;29;20522;-82
2023/05/29 04:42:37;;;;;;;14.97;13.87;;;15.10;99.90;;;;;;4911916;29;20475;-82
2023/05/29 04:45:06;;;;;;;14.83;14.03;;;15.10;99.90;;;;;;4911981;29;20476;-83
2023/05/29 04:47:34;;;;;;;14.50;13.37;;;15.10;99.90;;;;;;4910341;29;20464;-84
2023/05/29 04:50:02;;;;;;;14.33;13.43;;;15.10;99.90;;;;;;4911183;29;20842;-83
2023/05/29 04:52:32;;;;;;;14.30;13.30;;;15.20;99.90;;;;;;4911078;29;21306;-82
2023/05/29 04:55:00;;;;;;;14.70;13.70;;;15.30;99.90;;;;;;4911771;29;20581;-83
2023/05/29 04:57:28;;;;;;;14.37;13.30;;;15.30;99.90;;;;;;4908623;29;20476;-82
2023/05/29 04:59:56;;;;;;;14.30;13.40;;;15.20;99.90;;;;;;4911195;29;20970;-83
2023/05/29 05:02:24;;;;;;;14.40;13.43;;;15.30;99.90;;;;;;4908565;29;20466;-83
2023/05/29 05:04:52;;;;;;;14.47;13.67;;;15.40;99.90;;;;;;4911006;29;20832;-83
2023/05/29 05:07:21;;;;;;;14.27;13.20;;;15.50;99.90;;;;;;4910347;29;20468;-83
2023/05/29 05:09:50;;;;;;;15.70;14.43;;;15.50;99.90;;;;;;4909665;29;20498;-82
2023/05/29 05:12:18;;;;;;;14.53;13.63;;;15.50;99.90;;;;;;4910326;29;20484;-83
2023/05/29 05:14:46;;;;;;;14.20;13.13;;;15.50;99.90;;;;;;4907011;29;20994;-83
2023/05/29 05:17:14;;;;;;;14.73;13.67;;;15.60;99.90;;;;;;4910882;29;20543;-83
2023/05/29 05:19:42;;;;;;;14.33;13.47;;;15.60;99.90;;;;;;4908761;29;20464;-83
2023/05/29 05:22:10;;;;;;;14.37;13.30;;;15.70;99.90;;;;;;4910928;29;21106;-83
2023/05/29 05:24:38;;;;;;;14.87;13.77;;;15.70;99.90;;;;;;4911296;29;20531;-83
2023/05/29 05:27:08;;;;;;;15.40;14.10;;;15.70;99.90;;;;;;4909716;29;20453;-82
2023/05/29 05:29:36;;;;;;;15.20;13.77;;;15.70;99.90;;;;;;4909543;29;20486;-83
2023/05/29 05:32:04;;;;;;;14.30;13.23;;;15.70;99.90;;;;;;4909126;29;21057;-82
2023/05/29 05:34:33;;;;;;;13.97;13.10;;;15.80;99.90;;;;;;4909620;29;20466;-82
2023/05/29 05:37:02;;;;;;;13.77;13.07;;;15.80;99.90;;;;;;4910079;29;21083;-82
2023/05/29 05:39:30;;;;;;;14.90;13.90;;;15.80;99.90;;;;;;4909360;29;20475;-83
2023/05/29 05:41:58;;;;;;;14.07;13.37;;;15.90;99.90;;;;;;4909954;29;20487;-83
2023/05/29 05:44:28;;;;;;;14.00;13.10;;;15.80;99.90;;;;;;4909525;29;20491;-83
2023/05/29 05:46:56;;;;;;;14.83;13.93;;;15.80;99.90;;;;;;4901684;29;20986;-83
2023/05/29 05:49:24;;;;;;;15.10;14.17;;;15.90;99.90;;;;;;4908140;29;20492;-83
2023/05/29 05:51:52;;;;;;;13.90;13.10;;;16.00;99.90;;;;;;4909383;29;20492;-83
2023/05/29 05:54:20;;;;;;;15.03;13.93;;;16.10;99.90;;;;;;4910046;29;20475;-83
2023/05/29 05:56:48;;;;;;;14.50;13.63;;;16.10;99.90;;;;;;4908242;29;20456;-83
2023/05/29 05:59:17;;;;;;;14.90;14.00;;;16.10;99.90;;;;;;4908593;29;20514;-83
2023/05/29 06:01:46;;;;;;;15.20;14.20;;;16.20;99.90;;;;;;4908691;29;20489;-84
2023/05/29 06:04:14;;;;;;;14.10;13.20;;;16.20;99.90;;;;;;4908479;29;20468;-83
2023/05/29 06:06:43;;;;;;;14.00;13.20;;;16.30;99.90;;;;;;4907031;29;20474;-83
2023/05/29 06:09:12;;;;;;;15.53;14.43;;;16.30;99.90;;;;;;4907275;29;20485;-84
2023/05/29 06:11:40;;;;;;;14.07;13.03;;;16.40;99.90;;;;;;4908520;29;20533;-84
2023/05/29 06:14:08;;;;;;;14.73;13.63;;;16.50;99.90;;;;;;4904606;29;20552;-83
2023/05/29 06:16:36;;;;;;;14.03;13.30;;;16.50;99.90;;;;;;4908737;29;20974;-82
2023/05/29 06:19:06;;;;;;;15.70;14.10;;;16.60;99.90;;;;;;4907896;29;20529;-85
2023/05/29 06:21:34;;;;;;;14.23;13.50;;;16.60;99.90;;;;;;4906199;29;20580;-83
2023/05/29 06:24:03;;;;;;;14.30;13.60;;;16.70;99.90;;;;;;4909295;29;20464;-83
2023/05/29 06:26:31;;;;;;;14.87;14.07;;;16.80;99.90;;;;;;4908105;29;20971;-83
2023/05/29 06:28:59;;;;;;;15.50;14.30;;;16.90;99.90;;;;;;4906752;29;20539;-83
2023/05/29 06:31:28;;;;;;;14.60;13.53;;;17.00;99.90;;;;;;4907456;29;20500;-83
2023/05/29 06:33:57;;;;;;;14.53;13.63;;;17.10;99.90;;;;;;4908898;29;20456;-83
2023/05/29 06:36:26;;;;;;;14.43;13.50;;;17.20;99.90;;;;;;4905283;29;20533;-83
2023/05/29 06:38:54;;;;;;;13.83;12.73;;;17.30;99.90;;;;;;4907180;29;20899;-82
2023/05/29 06:41:23;;;;;;;14.73;13.93;;;17.30;99.90;;;;;;4908950;29;20472;-84
2023/05/29 06:43:51;;;;;;;14.60;13.80;;;17.50;99.90;;;;;;4907172;29;20824;-83
2023/05/29 06:46:19;;;;;;;15.63;14.73;;;17.50;99.90;;;;;;4907088;29;20900;-83
2023/05/29 06:48:48;;;;;;;13.77;13.07;;;17.60;99.90;;;;;;4922518;29;20998;-83
2023/05/29 06:51:18;;;;;;;14.90;13.83;;;17.60;99.90;;;;;;4908471;29;20521;-83
2023/05/29 06:53:47;;;;;;;14.13;13.30;;;17.60;99.90;;;;;;4907224;29;20959;-83
2023/05/29 06:56:16;;;;;;;14.83;14.00;;;17.70;99.90;;;;;;4906055;29;20454;-84
2023/05/29 06:58:45;;;;;;;14.83;14.00;;;17.70;99.90;;;;;;4906472;29;20494;-84
2023/05/29 07:01:14;;;;;;;14.33;13.43;;;17.80;99.90;;;;;;4901956;29;21266;-83
2023/05/29 07:03:43;;;;;;;14.37;13.57;;;17.90;99.90;;;;;;4906151;29;20852;-83
2023/05/29 07:06:11;;;;;;;14.47;13.67;;;17.90;99.90;;;;;;4906838;29;20457;-83
2023/05/29 07:08:39;;;;;;;13.43;12.87;;;17.90;99.90;;;;;;4904724;29;20971;-83
2023/05/29 07:11:09;;;;;;;14.10;13.30;;;18.00;99.90;;;;;;4906636;29;21010;-83
2023/05/29 07:13:37;;;;;;;14.93;14.23;;;18.10;99.90;;;;;;4906537;29;20463;-83
2023/05/29 07:16:06;;;;;;;15.03;13.70;;;18.10;99.90;;;;;;4906884;29;20468;-83
2023/05/29 07:18:51;;;;;;;14.97;14.10;;;18.20;99.90;;;;;;4906553;29;20453;-82
2023/05/29 07:21:20;;;;;;;14.73;13.93;;;18.30;99.90;;;;;;4907668;29;21300;-82
2023/05/29 07:23:48;;;;;;;14.83;14.07;;;18.30;99.90;;;;;;4907645;29;20458;-83
2023/05/29 07:26:17;;;;;;;14.57;13.87;;;18.40;99.90;;;;;;4907482;29;21035;-83
2023/05/29 07:28:46;;;;;;;15.00;14.30;;;18.50;99.90;;;;;;4907678;29;20461;-83
2023/05/29 07:31:14;;;;;;;14.00;13.37;;;18.50;99.90;;;;;;4920981;29;20494;-83
2023/05/29 07:33:42;;;;;;;15.67;14.57;;;18.60;99.90;;;;;;4906181;29;20526;-83
2023/05/29 07:36:10;;;;;;;14.43;13.80;;;18.70;99.90;;;;;;4906360;29;20454;-83
2023/05/29 07:38:38;;;;;;;14.63;13.90;;;18.80;99.90;;;;;;4901291;29;20518;-84
2023/05/29 07:41:07;;;;;;;14.83;14.00;;;18.70;99.90;;;;;;4910117;29;20465;-83
2023/05/29 07:43:36;;;;;;;15.30;14.40;;;18.80;99.90;;;;;;4911421;29;20461;-83
2023/05/29 07:46:05;;;;;;;15.20;14.27;;;18.90;99.90;;;;;;4910192;29;20472;-83
2023/05/29 07:48:33;;;;;;;14.67;14.07;;;18.90;99.90;;;;;;4910388;29;20878;-83
2023/05/29 07:51:01;;;;;;;14.70;13.87;;;19.00;99.90;;;;;;4911473;29;20492;-82
2023/05/29 07:53:29;;;;;;;15.00;14.23;;;19.00;99.90;;;;;;4906296;29;20548;-83
2023/05/29 07:55:57;;;;;;;14.87;13.87;;;19.00;99.90;;;;;;4910900;29;20445;-83
2023/05/29 07:58:25;;;;;;;15.13;14.17;;;19.20;99.90;;;;;;4910985;29;20510;-83
2023/05/29 08:00:55;;;;;;;14.67;13.87;;;19.30;99.90;;;;;;4911333;29;20483;-80
2023/05/29 08:03:23;;;;;;;15.30;14.30;;;19.30;99.90;;;;;;4912282;29;20553;-83
2023/05/29 08:05:52;;;;;;;15.47;14.67;;;19.30;99.90;;;;;;4911819;29;20513;-83
2023/05/29 08:08:20;;;;;;;15.23;14.50;;;19.40;99.90;;;;;;4911907;29;20839;-83
2023/05/29 08:10:48;;;;;;;15.20;14.40;;;19.50;99.90;;;;;;4910870;29;20498;-82
2023/05/29 08:13:16;;;;;;;16.20;15.23;;;19.50;99.90;;;;;;4911701;29;20465;-83
2023/05/29 08:15:44;;;;;;;16.80;15.90;;;19.50;99.90;;;;;;4909880;29;20465;-82
2023/05/29 08:18:13;;;;;;;15.90;15.10;;;19.60;99.90;;;;;;4911236;29;20469;-83
2023/05/29 08:20:42;;;;;;;15.93;15.00;;;19.70;99.90;;;;;;4909341;29;20586;-83
2023/05/29 08:23:10;;;;;;;17.13;15.93;;;19.70;99.90;;;;;;4908723;29;20489;-83
2023/05/29 08:25:38;;;;;;;16.00;15.30;;;19.70;99.90;;;;;;4909595;29;20517;-83
2023/05/29 08:28:06;;;;;;;16.03;15.20;;;19.80;99.90;;;;;;4911736;29;20472;-83
2023/05/29 08:30:35;;;;;;;16.57;15.40;;;19.90;99.90;;;;;;4901381;29;20486;-83
2023/05/29 08:33:03;;;;;;;16.60;15.60;;;19.90;99.90;;;;;;4910743;29;20465;-82
2023/05/29 08:35:32;;;;;;;15.97;15.13;;;20.00;99.90;;;;;;4909663;29;20512;-83
2023/05/29 08:38:00;;;;;;;15.57;14.70;;;20.10;99.90;;;;;;4910591;29;20466;-84
2023/05/29 08:40:28;;;;;;;15.93;15.23;;;20.10;99.90;;;;;;4909239;29;20477;-83
2023/05/29 08:43:00;;;;;;;16.33;15.50;;;20.10;99.90;;;;;;4910543;29;20462;-82
2023/05/29 08:45:30;;;;;;;16.70;15.63;;;20.20;99.90;;;;;;4908230;29;20475;-83
2023/05/29 08:48:01;;;;;;;16.73;15.83;;;20.20;99.90;;;;;;4909277;29;20557;-83
2023/05/29 08:50:29;;;;;;;15.87;15.17;;;20.30;99.90;;;;;;4907153;29;20473;-83
2023/05/29 08:52:59;;;;;;;15.97;15.30;;;20.40;99.90;;;;;;4910506;29;20492;-83
2023/05/29 08:55:28;;;;;;;16.80;16.00;;;20.40;99.90;;;;;;4909342;29;20446;-83
2023/05/29 08:57:56;;;;;;;15.93;15.23;;;20.40;99.90;;;;;;4910024;29;20461;-82
2023/05/29 09:00:28;;;;;;;16.50;15.73;;;20.40;99.90;;;;;;4908372;29;20450;-83
2023/05/29 09:02:56;;;;;;;16.03;15.33;;;20.40;99.90;;;;;;4909519;29;20466;-83
2023/05/29 09:05:26;;;;;;;15.40;14.80;;;20.50;99.90;;;;;;4910504;29;20546;-83
2023/05/29 09:07:56;;;;;;;17.17;16.37;;;20.60;99.90;;;;;;4910803;29;20459;-83
2023/05/29 09:10:26;;;;;;;16.13;15.27;;;20.60;99.90;;;;;;4909991;29;20496;-83
2023/05/29 09:12:54;;;;;;;16.50;15.70;;;20.70;99.90;;;;;;4908960;29;20880;-83
2023/05/29 09:15:23;;;;;;;15.90;15.00;;;20.80;99.90;;;;;;4910068;29;20491;-82
2023/05/29 09:17:52;;;;;;;16.40;15.40;;;20.90;99.90;;;;;;4910103;29;20465;-83
2023/05/29 09:20:23;;;;;;;15.90;15.00;;;20.90;99.90;;;;;;4909397;29;20815;-83
2023/05/29 09:22:56;;;;;;;16.33;15.53;;;20.90;99.90;;;;;;4910085;29;20450;-82
2023/05/29 09:25:27;;;;;;;16.50;15.60;;;20.90;99.90;;;;;;4909997;29;20457;-82
2023/05/29 09:28:02;;;;;;;17.47;16.47;;;21.00;99.90;;;;;;4910121;29;20457;-83
2023/05/29 09:30:35;;;;;;;16.37;15.50;;;21.00;99.90;;;;;;4907940;29;20816;-83
2023/05/29 09:33:05;;;;;;;15.73;14.93;;;21.00;99.90;;;;;;4908884;29;20465;-83
2023/05/29 09:35:34;;;;;;;15.43;14.90;;;21.10;99.90;;;;;;4908199;29;20465;-83
2023/05/29 09:38:03;;;;;;;16.00;15.20;;;21.20;99.90;;;;;;4910065;29;20466;-83
2023/05/29 09:40:33;;;;;;;16.20;15.40;;;21.20;99.90;;;;;;4907997;29;20486;-83
2023/05/29 09:43:07;;;;;;;16.03;15.23;;;21.20;99.90;;;;;;4910125;29;20513;-82
2023/05/29 09:45:40;;;;;;;17.83;16.83;;;21.30;99.90;;;;;;4909250;29;20458;-83
2023/05/29 09:48:09;;;;;;;15.87;15.17;;;21.30;99.90;;;;;;4908824;29;20457;-83
2023/05/29 09:50:37;;;;;;;16.73;15.73;;;21.40;99.90;;;;;;4909615;29;20572;-83
2023/05/29 09:53:18;;;;;;;16.30;15.53;;;21.40;99.90;;;;;;4908891;29;20454;-83
2023/05/29 09:55:50;;;;;;;17.33;16.43;;;21.50;99.90;;;;;;4907885;29;20470;-82
2023/05/29 09:58:19;;;;;;;16.53;15.73;;;21.50;99.90;;;;;;4907708;29;20446;-83
2023/05/29 10:00:48;;;;;;;17.87;16.50;;;21.60;99.90;;;;;;4900093;29;20482;-83
2023/05/29 10:03:17;;;;;;;17.40;16.40;;;21.60;99.90;;;;;;4905945;29;20474;-83
2023/05/29 10:05:50;;;;;;;16.53;15.63;;;21.50;99.90;;;;;;4908736;29;20553;-82
2023/05/29 10:08:20;;;;;;;15.47;14.77;;;21.60;99.90;;;;;;4908627;29;20461;-82
2023/05/29 10:10:57;;;;;;;16.60;15.63;;;21.70;99.90;;;;;;4908736;29;20480;-82
2023/05/29 10:13:27;;;;;;;16.73;15.73;;;21.80;99.90;;;;;;4907721;29;20453;-83
2023/05/29 10:15:57;;;;;;;17.20;16.20;;;21.80;99.90;;;;;;4908996;29;20445;-83
2023/05/29 10:18:32;;;;;;;16.33;15.53;;;21.80;99.90;;;;;;4909100;29;20453;-83
2023/05/29 10:21:02;;;;;;;15.80;15.07;;;21.80;99.90;;;;;;4907774;29;20469;-83
2023/05/29 10:23:31;;;;;;;16.70;15.80;;;21.90;99.90;;;;;;4906570;29;20469;-83
2023/05/29 10:26:07;;;;;;;15.80;15.10;;;22.00;99.90;;;;;;4908569;29;20461;-83
2023/05/29 10:28:41;;;;;;;15.90;15.30;;;22.00;99.90;;;;;;4908557;29;20461;-82
2023/05/29 10:31:15;;;;;;;16.17;15.57;;;22.00;99.90;;;;;;4908097;29;21042;-83
2023/05/29 10:33:59;;;;;;;16.20;15.50;;;22.00;99.90;;;;;;4907246;29;20474;-83
2023/05/29 10:36:33;;;;;;;16.63;15.63;;;22.00;99.90;;;;;;4908042;29;20970;-82
2023/05/29 10:39:02;;;;;;;16.20;15.40;;;22.10;99.90;;;;;;4903667;29;20465;-83
2023/05/29 10:41:39;;;;;;;16.03;15.17;;;22.10;99.90;;;;;;4906352;29;20490;-84
2023/05/29 10:44:43;;;;;;;16.40;15.40;;;22.10;99.90;;;;;;4902280;29;20465;-84
2023/05/29 10:47:12;;;;;;;16.83;15.80;;;22.20;99.90;;;;;;4907692;29;20454;-83
2023/05/29 10:49:49;;;;;;;15.83;15.17;;;22.20;99.90;;;;;;4906884;29;20875;-82
2023/05/29 10:52:21;;;;;;;17.50;16.70;;;22.30;99.90;;;;;;4906329;29;21342;-83
2023/05/29 10:54:55;;;;;;;16.20;15.47;;;22.30;99.90;;;;;;4907438;29;20465;-83
2023/05/29 10:57:26;;;;;;;15.70;14.60;;;22.30;99.90;;;;;;4908067;29;21097;-83
2023/05/29 11:00:11;;;;;;;15.70;15.00;;;22.40;99.90;;;;;;4906475;29;20887;-83
2023/05/29 11:02:41;;;;;;;15.90;15.30;;;22.30;99.90;;;;;;4923107;29;20473;-83
2023/05/29 11:05:20;;;;;;;15.67;15.07;;;22.40;99.90;;;;;;4907199;29;20530;-83
2023/05/29 11:07:54;;;;;;;15.60;15.00;;;22.40;99.90;;;;;;4906896;29;20484;-83
2023/05/29 11:10:44;;;;;;;16.70;15.80;;;22.50;99.90;;;;;;4900622;29;20446;-82
2023/05/29 11:13:25;;;;;;;17.00;16.07;;;22.60;99.90;;;;;;4907513;29;20482;-83
2023/05/29 11:16:12;;;;;;;15.10;14.40;;;22.60;99.90;;;;;;4908348;29;20467;-83
2023/05/29 11:18:42;;;;;;;15.97;14.90;;;22.60;99.90;;;;;;4908642;29;20462;-83
2023/05/29 11:21:24;;;;;;;15.50;14.90;;;22.50;99.90;;;;;;4907102;29;21011;-83
2023/05/29 11:23:53;;;;;;;14.80;14.20;;;22.50;99.90;;;;;;4908723;29;20466;-83
2023/05/29 11:26:23;;;;;;;16.10;15.30;;;22.60;99.90;;;;;;4904492;29;20458;-83
2023/05/29 11:28:53;;;;;;;16.23;15.33;;;22.60;99.90;;;;;;4905374;29;20461;-83
2023/05/29 11:31:22;;;;;;;16.20;15.20;;;22.60;99.90;;;;;;4908261;29;20495;-83
2023/05/29 11:33:51;;;;;;;14.73;14.13;;;22.70;99.90;;;;;;4906491;29;20493;-83
2023/05/29 11:36:20;;;;;;;15.83;15.13;;;22.70;99.90;;;;;;4905921;29;20512;-82
2023/05/29 11:38:48;;;;;;;15.33;14.40;;;22.70;99.90;;;;;;4908129;29;20464;-83
2023/05/29 11:41:18;;;;;;;15.87;14.93;;;22.80;99.90;;;;;;4908666;29;20488;-82
2023/05/29 11:43:57;;;;;;;14.63;13.93;;;22.80;99.90;;;;;;4907539;29;20461;-82
2023/05/29 11:46:26;;;;;;;14.97;14.33;;;22.90;99.90;;;;;;4906496;29;20464;-83
2023/05/29 11:48:54;;;;;;;15.30;14.50;;;22.90;99.90;;;;;;4906976;29;20497;-83
2023/05/29 11:51:22;;;;;;;15.23;14.57;;;22.90;99.90;;;;;;4907426;29;20489;-84
2023/05/29 11:53:57;;;;;;;14.70;14.20;;;22.90;99.90;;;;;;4921068;29;20729;-82
2023/05/29 11:56:26;;;;;;;15.10;14.50;;;22.90;99.90;;;;;;4907271;29;20461;-83
2023/05/29 11:58:57;;;;;;;14.23;13.60;;;23.00;99.90;;;;;;4905418;29;20548;-83
2023/05/29 12:01:26;;;;;;;14.87;14.27;;;23.00;99.90;;;;;;4906439;29;20529;-83
2023/05/29 12:03:54;;;;;;;15.37;14.53;;;23.00;99.90;;;;;;4900544;29;20466;-83
2023/05/29 12:06:33;;;;;;;15.07;14.17;;;23.10;99.90;;;;;;4907203;29;20955;-83
2023/05/29 12:09:03;;;;;;;14.30;13.70;;;23.20;99.90;;;;;;4906115;29;20561;-83
2023/05/29 12:11:34;;;;;;;15.17;14.07;;;23.10;99.90;;;;;;4905604;29;20480;-83
2023/05/29 12:14:04;;;;;;;14.60;13.80;;;23.10;99.90;;;;;;4907373;29;20513;-83
2023/05/29 12:16:35;;;;;;;14.00;13.30;;;23.10;99.90;;;;;;4906402;29;20548;-83
2023/05/29 12:19:03;;;;;;;14.60;13.93;;;23.10;99.90;;;;;;4906882;29;20449;-82
2023/05/29 12:21:31;;;;;;;24.90;22.20;;;23.20;99.90;;;;;;4905954;29;20571;-83
2023/05/29 12:24:00;;;;;;;15.10;14.03;;;23.20;99.90;;;;;;4907355;29;20456;-83
2023/05/29 12:26:32;;;;;;;13.30;12.77;;;23.10;99.90;;;;;;4910421;29;20575;-83
2023/05/29 12:29:05;;;;;;;13.80;13.17;;;23.20;99.90;;;;;;4901575;29;20778;-82
2023/05/29 12:31:33;;;;;;;13.17;12.67;;;23.10;99.90;;;;;;4923905;29;20489;-83
2023/05/29 12:34:03;;;;;;;14.47;13.73;;;23.20;99.90;;;;;;4907751;29;20477;-83
2023/05/29 12:36:33;;;;;;;13.07;12.47;;;23.20;99.90;;;;;;4909455;29;20476;-83
2023/05/29 12:39:06;;;;;;;14.63;13.70;;;23.20;99.90;;;;;;4909883;29;20469;-83
2023/05/29 12:41:36;;;;;;;13.13;12.63;;;23.20;99.90;;;;;;4910849;29;21364;-83